createdAt,value
2023-03-28T09:36:48.397Z,3.10
2023-03-28T09:41:55.417Z,3.65
2023-03-28T09:47:35.607Z,3.60
2023-03-28T09:52:40.070Z,3.45
2023-03-28T09:58:05.814Z,3.58
2023-03-28T10:03:25.044Z,3.70
2023-03-28T10:08:40.807Z,4.77
2023-03-28T10:13:49.524Z,4.95
2023-03-28T10:18:44.951Z,11.90
2023-03-28T10:24:03.272Z,13.80
2023-03-28T10:29:15.663Z,15.85
2023-03-28T10:34:09.703Z,10.13
2023-03-28T10:39:32.654Z,7.20
2023-03-28T10:45:05.228Z,2.65
2023-03-28T10:50:01.504Z,4.05
2023-03-28T10:55:10.164Z,4.75
2023-03-28T11:00:25.004Z,3.80
2023-03-28T11:05:37.886Z,4.97
2023-03-28T11:10:42.948Z,2.95
2023-03-28T11:15:51.498Z,2.43
2023-03-28T11:21:01.089Z,5.07
2023-03-28T11:26:08.964Z,4.97
2023-03-28T11:31:41.679Z,2.85
2023-03-28T11:36:49.778Z,2.25
2023-03-28T11:41:47.045Z,3.03
2023-03-28T11:46:53.160Z,4.30
2023-03-28T11:51:50.761Z,4.10
2023-03-28T11:56:55.665Z,1.93
2023-03-28T12:02:47.885Z,2.77
2023-03-28T12:07:47.680Z,3.45
2023-03-28T12:13:02.684Z,2.00
2023-03-28T12:18:24.528Z,2.60
2023-03-28T12:23:27.654Z,3.20
2023-03-28T12:29:01.004Z,3.37
2023-03-28T12:34:07.448Z,2.28
2023-03-28T12:39:36.054Z,2.42
2023-03-28T12:44:50.545Z,3.23
2023-03-28T12:49:53.063Z,2.95
2023-03-28T12:55:01.471Z,3.67
2023-03-28T13:00:29.620Z,2.90
2023-03-28T13:05:53.603Z,2.45
2023-03-28T13:10:50.735Z,1.98
2023-03-28T13:16:00.088Z,2.87
2023-03-28T13:20:55.612Z,3.13
2023-03-28T13:25:48.838Z,2.60
2023-03-28T13:30:40.228Z,3.08
2023-03-28T13:35:50.333Z,4.07
2023-03-28T13:40:52.024Z,3.63
2023-03-28T13:45:43.697Z,4.55
2023-03-28T13:50:37.770Z,3.00
2023-03-28T13:55:34.243Z,3.30
2023-03-28T14:00:31.984Z,4.25
2023-03-28T14:05:30.521Z,3.65
2023-03-28T14:10:31.263Z,2.95
2023-03-28T14:15:34.269Z,4.50
2023-03-28T14:20:26.770Z,2.95
2023-03-28T14:25:19.788Z,3.60
2023-03-28T14:30:23.034Z,6.57
2023-03-28T14:35:23.478Z,4.93
2023-03-28T14:40:34.356Z,5.63
2023-03-28T14:45:28.522Z,5.25
2023-03-28T14:50:24.956Z,5.00
2023-03-28T14:55:21.678Z,2.97
2023-03-28T15:00:19.652Z,4.45
2023-03-28T15:05:16.216Z,4.82
2023-03-28T15:10:14.259Z,4.15
2023-03-28T15:15:08.239Z,5.68
2023-03-28T15:20:06.220Z,5.47
2023-03-28T15:25:00.581Z,2.75
2023-03-28T15:29:58.415Z,6.22
2023-03-28T15:34:50.237Z,3.15
2023-03-28T15:39:42.102Z,5.15
2023-03-28T15:44:38.870Z,4.27
2023-03-28T15:49:43.340Z,4.63
2023-03-28T15:54:37.783Z,4.85
2023-03-28T15:59:36.203Z,5.70
2023-03-28T16:04:29.521Z,6.57
2023-03-28T16:09:24.853Z,4.35
2023-03-28T16:14:19.040Z,4.83
2023-03-28T16:19:36.768Z,4.18
2023-03-28T16:24:34.836Z,6.80
2023-03-28T16:29:28.943Z,5.93
2023-03-28T16:34:21.340Z,6.10
2023-03-28T16:39:14.146Z,6.00
2023-03-28T16:44:10.212Z,5.60
2023-03-28T16:49:01.502Z,5.57
2023-03-28T16:53:55.018Z,3.13
2023-03-28T16:58:46.712Z,4.80
2023-03-28T17:03:42.892Z,4.68
2023-03-28T17:08:34.679Z,4.15
2023-03-28T17:13:25.864Z,3.28
2023-03-28T17:18:17.110Z,3.87
2023-03-28T17:23:11.902Z,3.63
2023-03-28T17:28:04.354Z,3.60
2023-03-28T17:32:57.993Z,3.83
2023-03-28T17:37:53.436Z,3.47
2023-03-28T17:42:48.967Z,4.90
2023-03-28T17:47:40.270Z,6.22
2023-03-28T17:52:33.233Z,4.40
2023-03-28T17:57:25.726Z,5.50
2023-03-28T18:02:21.611Z,2.03
2023-03-28T18:07:24.890Z,3.70
2023-03-28T18:12:16.392Z,2.53
2023-03-28T18:17:08.639Z,4.03
2023-03-28T18:22:05.209Z,4.22
2023-03-28T18:26:56.932Z,2.22
2023-03-28T18:31:49.265Z,2.20
2023-03-28T18:36:42.088Z,2.30
2023-03-28T18:41:37.492Z,2.33
2023-03-28T18:46:30.307Z,2.83
2023-03-28T18:51:24.746Z,3.35
2023-03-28T18:56:17.424Z,2.83
2023-03-28T19:01:16.306Z,3.65
2023-03-28T19:06:08.226Z,3.22
2023-03-28T19:11:04.268Z,3.67
2023-03-28T19:16:04.068Z,2.80
2023-03-28T19:21:01.996Z,3.37
2023-03-28T19:25:53.677Z,3.08
2023-03-28T19:30:47.417Z,2.67
2023-03-28T19:35:39.087Z,3.53
2023-03-28T19:40:33.337Z,4.00
2023-03-28T19:45:26.779Z,3.37
2023-03-28T19:50:20.591Z,2.30
2023-03-28T19:55:16.189Z,3.85
2023-03-28T20:00:12.979Z,2.43
2023-03-28T20:05:03.453Z,2.80
2023-03-28T20:09:57.278Z,2.03
2023-03-28T20:14:49.077Z,2.90
